WetterOnline ( https://www.wetteronline.de )

Wetter aktuell Freudenstadt

Aktuelles Wetter: Freudenstadt (801m)

6-stündlich | Neueste Meldungen
Ortszeit Temperatur Wetter
Mo, 15.04. 20:00 10.2° C bewölkt
Mo, 15.04. 14:00 10.8° C bewölkt
Mo, 15.04. 8:00 8.8° C Regen
Mo, 15.04. 2:00 13.0° C bewölkt
So, 14.04. 20:00 17.0° C wolkig
So, 14.04. 14:00 20.1° C leicht bewölkt
So, 14.04. 8:00 14.1° C wolkig
So, 14.04. 2:00 16.8° C wolkig
Ortszeit Temperatur Wetter
Mo, 15.04. 21:30 3.6° C leichter Regen
Mo, 15.04. 21:20 3.6° C leichter Regen
Mo, 15.04. 21:10 4.3° C leichter Regen
Mo, 15.04. 21:00 9.9° C bewölkt
Mo, 15.04. 20:50 9.9° C bewölkt
Mo, 15.04. 20:40 9.7° C bedeckt
Mo, 15.04. 20:30 9.6° C bewölkt
Mo, 15.04. 20:00 10.2° C bewölkt
Mo, 15.04. 19:30 10.9° C bewölkt
Mo, 15.04. 19:00 11.4° C leichter Regen
Mo, 15.04. 18:30 12.0° C bewölkt
Ortszeit Relative Feuchte Sichtweite
Mo, 15.04. 20:00 53% 50 km
Mo, 15.04. 14:00 87% 40 km
Mo, 15.04. 8:00 92% 30 km
Mo, 15.04. 2:00 81% 65 km
So, 14.04. 20:00 67% 60 km
So, 14.04. 14:00 44% >70 km
So, 14.04. 8:00 63% >70 km
So, 14.04. 2:00 49% 65 km
Ortszeit Relative Feuchte Sichtweite
Mo, 15.04. 21:30 90% 27 km
Mo, 15.04. 21:20 90% -
Mo, 15.04. 21:10 86% -
Mo, 15.04. 21:00 51% 45 km
Mo, 15.04. 20:50 51% -
Mo, 15.04. 20:40 53% -
Mo, 15.04. 20:30 54% 55 km
Mo, 15.04. 20:00 53% 50 km
Mo, 15.04. 19:30 52% 50 km
Mo, 15.04. 19:00 52% 35 km
Mo, 15.04. 18:30 49% 55 km
Ortszeit Niederschlagsmenge Niederschlagsart
Mo, 15.04. 20:00 0.7 l/m2 in 12 Std. Regen
Mo, 15.04. 14:00 0.6 l/m2 in 6 Std. Regen
Mo, 15.04. 8:00 1 l/m2 in 12 Std. Regen
Mo, 15.04. 2:00 0.0 l/m2 in 6 Std. -
So, 14.04. 20:00 0.0 l/m2 in 12 Std. -
So, 14.04. 14:00 0.0 l/m2 in 6 Std. -
So, 14.04. 8:00 0.0 l/m2 in 12 Std. -
So, 14.04. 2:00 0.0 l/m2 in 6 Std. -
Ortszeit Niederschlagsmenge Niederschlagsart
Mo, 15.04. 21:30 0.6 l/m2 in 30 Min -
Mo, 15.04. 21:20 keine Meldung -
Mo, 15.04. 21:10 keine Meldung -
Mo, 15.04. 21:00 <0.05 l/m2 in 1 Std. Regen
Mo, 15.04. 20:50 keine Meldung -
Mo, 15.04. 20:40 keine Meldung -
Mo, 15.04. 20:30 0.0 l/m2 in 30 Min -
Mo, 15.04. 20:00 <0.05 l/m2 in 1 Std. Regen
Mo, 15.04. 19:30 <0.05 l/m2 in 30 Min Schneeregen
Mo, 15.04. 19:00 <0.05 l/m2 in 1 Std. Regen
Mo, 15.04. 18:30 <0.05 l/m2 in 30 Min Schneeregen
Ortszeit Stärke Spitze Richtung
km/h Bft. km/h Grad Sektor
Mo, 15.04. 20:00 44 6 76 270° W
Mo, 15.04. 14:00 18 3 47 260° W
Mo, 15.04. 8:00 11 2 29 270° W
Mo, 15.04. 2:00 19 3 22 280° W
So, 14.04. 20:00 7 2 40 270° W
So, 14.04. 14:00 18 3 43 270° W
So, 14.04. 8:00 20 4 39 260° W
So, 14.04. 2:00 22 4 40 260° W
Ortszeit Stärke Spitze Richtung
km/h Bft. km/h Grad Sektor
Mo, 15.04. 21:30 37 5 72 290° W
Mo, 15.04. 21:20 37 5 - 290° W
Mo, 15.04. 21:10 39 6 - 290° W
Mo, 15.04. 21:00 43 6 76 270° W
Mo, 15.04. 20:50 43 6 - 270° W
Mo, 15.04. 20:40 39 6 - 270° W
Mo, 15.04. 20:30 43 6 72 270° W
Mo, 15.04. 20:00 44 6 76 270° W
Mo, 15.04. 19:30 47 6 76 270° W
Mo, 15.04. 19:00 37 5 67 270° W
Mo, 15.04. 18:30 41 6 61 270° W
Ortszeit Untergrenze Bedeckung Gattung
total tief tief mittel hoch
Mo, 15.04. 20:00 2400 m 8/8 5/8 - - -
Mo, 15.04. 14:00 300 m 7/8 7/8 - - -
Mo, 15.04. 8:00 1080 m 8/8 1/8 - - -
Mo, 15.04. 2:00 1290 m 8/8 6/8 - - -
So, 14.04. 20:00 7200 m 8/8 0/8 - - -
So, 14.04. 14:00 7800 m 8/8 0/8 - - -
So, 14.04. 8:00 9000 m 7/8 0/8 - - -
So, 14.04. 2:00 7800 m 8/8 0/8 - - -
Ortszeit Bedeckungsgrad in Achtel und Wolkenuntergrenze
Mo, 15.04. 21:30 4(300m) 7(1260m) 7(1470m)
Mo, 15.04. 21:20 4(300m) 7(1260m) 7(1470m)
Mo, 15.04. 21:10 7
Mo, 15.04. 21:00 5(1500m) 7(2100m) 8(6600m)
Mo, 15.04. 20:50 5(1500m) 7(2100m) 8(6600m)
Mo, 15.04. 20:40 8
Mo, 15.04. 20:30 4(2100m) 8(6600m) 8(7800m)
Mo, 15.04. 20:00 5(2400m) 8(6600m) 8(7800m)
Mo, 15.04. 19:30 3(1500m) 7(2100m) 8(6900m)
Mo, 15.04. 19:00 6(1500m) 7(1800m) 8(7500m)
Mo, 15.04. 18:30 1(1500m) 6(2400m) 7(7500m)
Ortszeit Stationsdruck (hPa) Tendenz (hPa in 3 Std.)
Mo, 15.04. 20:00 915 - 0,1
Mo, 15.04. 14:00 918 - 2,6
Mo, 15.04. 8:00 922 - 0,6
Mo, 15.04. 2:00 924 - 1,2
So, 14.04. 20:00 927 - 1,5
So, 14.04. 14:00 930 - 0,9
So, 14.04. 8:00 931 - 0,1
So, 14.04. 2:00 932 - 0,6
Ortszeit Stationsdruck (hPa) Tendenz (hPa in 3 Std.)
Mo, 15.04. 21:30 917 + 2,4
Mo, 15.04. 21:20 917 keine Meldung
Mo, 15.04. 21:10 917 keine Meldung
Mo, 15.04. 21:00 915 + 0,5
Mo, 15.04. 20:50 915 keine Meldung
Mo, 15.04. 20:40 915 keine Meldung
Mo, 15.04. 20:30 915 + 0,4
Mo, 15.04. 20:00 915 - 0,1
Mo, 15.04. 19:30 915 - 0,5
Mo, 15.04. 19:00 915 - 0,9
Mo, 15.04. 18:30 914 - 2,1
Ortszeit Schneehöhe (cm)
Mo, 15.04. 20:00 0
Mo, 15.04. 14:00 0
Mo, 15.04. 8:00 0
Mo, 15.04. 2:00 0
So, 14.04. 20:00 0
So, 14.04. 14:00 0
So, 14.04. 8:00 0
So, 14.04. 2:00 0
Ortszeit Schneehöhe (cm)
Mo, 15.04. 21:30 0
Mo, 15.04. 21:20 0
Mo, 15.04. 21:10 -
Mo, 15.04. 21:00 0
Mo, 15.04. 20:50 0
Mo, 15.04. 20:40 -
Mo, 15.04. 20:30 0
Mo, 15.04. 20:00 0
Mo, 15.04. 19:30 0
Mo, 15.04. 19:00 0
Mo, 15.04. 18:30 0
Link zu dieser Seite / Seite empfehlen

Das Wetter in ...